Alfred, ME

5:21 AM EST on December 11, 2016 (GMT -0500)
Sanford Regional | | Change Station
Active Advisory: Winter Storm Watch

Elev 243 ft 43.39 °N, 70.71 °W | Updated 25 minutes ago

Clear
Clear
3 °F
Feels Like 3 °F
N
0
Wind Variable Wind from North

Today
High -- | Low -- °F
--% Chance of Precip.
Yesterday
High -- | Low -- °F
Precip. -- in
Pressure 30.49 in
Visibility 10.0 miles
Clouds Clear
Dew Point -1 °F
Humidity 84%
Rainfall 0.00 in
Snow Depth Not available.
7:06 AM 4:06 PM
Waxing Gibbous, 90% visible
METAR KSFM 110956Z AUTO 00000KT 10SM CLR M16/M18 A3045 RMK AO2 SLP324 T11611183 FZRANO $
Pressure 30.49 in
Visibility 10.0 miles
Clouds Clear
Dew Point -1 °F
Humidity 84%
Rainfall 0.00 in
Snow Depth Not available.
7:06 AM 4:06 PM
Waxing Gibbous, 90% visible
METAR KSFM 110956Z AUTO 00000KT 10SM CLR M16/M18 A3045 RMK AO2 SLP324 T11611183 FZRANO $

10-Day Weather Forecast

Almanac

Astronomy

Dec. 11, 2016 Rise Set
Actual Time
Civil Twilight
Nautical Twilight
Astronomical Twilight
Moon
Length of Visible Light
Length of Day
Tomorrow will be .
, % of the Moon is Illuminated

Today's Extremes

State Highs State Lows

Community

WunderPhotos

Upload Photos

1,956,702 photos uploaded!

WunderBlog® & News

Nearby

Air Quality

  Air Quality AQ Index Pollutant
Not available.

Snow Depth

Station Depth Elevation

Earthquake Activity

City Distance Mag. Time & Date
Minimum magnitude displayed is 2.5.

Coastal Water Temperatures

Place Temperature

Stations

Nearby Weather Stations

Station Location Temp. Windchill Dew Point Humidity Wind Precip. Elev Updated Type
                   

Watches & Warnings

Winter Storm Watch
Issued: 3:25 AM EST Dec. 11, 2016 – National Weather Service

... Winter Storm Watch remains in effect from late tonight through
Monday evening...

* hazard types... snow... possibly heavy at times late tonight and
Monday morning.

* Accumulations... 6 or more inches of snow possible.

* Timing... snow will begin tonight and continue through Monday.

* Impacts... snow and low visibilities will make for hazardous
travel conditions.

* Winds... northeast 5 to 10 mph.

* Temperatures... in the upper 20s.

* Visibilities... a half mile or less at times.

Precautionary/preparedness actions...

A Winter Storm Watch means there is a potential for significant
snow... sleet... or ice accumulations that may impact travel.
Continue to monitor the latest forecasts.